createdAt,value
2023-05-19T00:01:19.650Z,100907.32
2023-05-19T00:03:54.427Z,100907.74
2023-05-19T00:06:31.911Z,100912.81
2023-05-19T00:08:59.105Z,100909.88
2023-05-19T00:11:28.525Z,100913.08
2023-05-19T00:13:56.478Z,100913.71
2023-05-19T00:16:24.307Z,100914.33
2023-05-19T00:18:52.010Z,100917.69
2023-05-19T00:21:19.229Z,100915.14
2023-05-19T00:23:46.296Z,100914.01
2023-05-19T00:26:13.358Z,100912.70
2023-05-19T00:28:42.010Z,100913.09
2023-05-19T00:31:09.432Z,100920.89
2023-05-19T00:33:36.802Z,100920.59
2023-05-19T00:36:04.208Z,100922.89
2023-05-19T00:38:31.947Z,100921.18
2023-05-19T00:40:59.788Z,100928.02
2023-05-19T00:43:27.033Z,100930.97
2023-05-19T00:45:54.091Z,100933.42
2023-05-19T00:48:21.956Z,100932.23
2023-05-19T00:50:49.675Z,100930.73
2023-05-19T00:53:17.934Z,100930.20
2023-05-19T00:55:45.104Z,100929.97
2023-05-19T00:58:12.406Z,100927.20
2023-05-19T01:00:40.082Z,100925.06
2023-05-19T01:03:13.390Z,100928.03
2023-05-19T01:05:47.808Z,100930.45
2023-05-19T01:08:14.949Z,100929.60
2023-05-19T01:10:42.069Z,100931.36
2023-05-19T01:13:09.686Z,100933.20
2023-05-19T01:15:52.657Z,100934.62
2023-05-19T01:18:23.443Z,100932.57
2023-05-19T01:21:17.853Z,100933.11
2023-05-19T01:24:03.983Z,100933.92
2023-05-19T01:26:37.302Z,100935.17
2023-05-19T01:29:19.450Z,100934.65
2023-05-19T01:31:48.209Z,100935.54
2023-05-19T01:34:15.247Z,100936.63
2023-05-19T01:36:45.117Z,100939.85
2023-05-19T01:39:13.142Z,100943.84
2023-05-19T01:41:40.924Z,100948.30
2023-05-19T01:44:09.181Z,100950.56
2023-05-19T01:46:36.736Z,100957.25
2023-05-19T01:49:03.761Z,100965.18
2023-05-19T01:51:31.659Z,100973.94
2023-05-19T01:53:59.258Z,100977.35
2023-05-19T01:56:37.999Z,100975.76
2023-05-19T01:59:13.657Z,100972.61
2023-05-19T02:01:53.269Z,100976.77
2023-05-19T02:04:40.175Z,100978.82
2023-05-19T02:07:15.960Z,100982.08
2023-05-19T02:10:05.439Z,100981.89
2023-05-19T02:12:37.777Z,100983.27
2023-05-19T02:15:05.373Z,100986.02
2023-05-19T02:17:36.422Z,100988.44
2023-05-19T02:20:04.767Z,100987.40
2023-05-19T02:22:33.530Z,100992.02
2023-05-19T02:25:00.623Z,100990.19
2023-05-19T02:27:27.737Z,100993.52
2023-05-19T02:29:57.780Z,100999.33
2023-05-19T02:32:24.846Z,100999.87
2023-05-19T02:34:53.457Z,100999.77
2023-05-19T02:37:23.980Z,101004.19
2023-05-19T02:39:51.421Z,101007.39
2023-05-19T02:42:18.502Z,101009.64
2023-05-19T02:44:46.371Z,101012.10
2023-05-19T02:47:14.043Z,101017.16
2023-05-19T02:49:41.299Z,101020.48
2023-05-19T02:52:08.351Z,101022.31
2023-05-19T02:54:35.613Z,101021.68
2023-05-19T02:57:02.618Z,101021.80
2023-05-19T02:59:29.857Z,101021.61
2023-05-19T03:02:01.074Z,101019.60
2023-05-19T03:04:31.792Z,101018.00
2023-05-19T03:06:58.870Z,101015.86
2023-05-19T03:09:27.320Z,101020.02
2023-05-19T03:11:54.363Z,101024.30
2023-05-19T03:14:24.356Z,101026.52
2023-05-19T03:16:51.743Z,101027.19
2023-05-19T03:19:18.971Z,101029.45
2023-05-19T03:21:47.619Z,101029.11
2023-05-19T03:24:16.361Z,101030.18
2023-05-19T03:26:43.418Z,101029.04
2023-05-19T03:29:11.628Z,101032.95
2023-05-19T03:31:39.752Z,101032.13
2023-05-19T03:34:06.907Z,101034.38
2023-05-19T03:36:40.022Z,101037.49
2023-05-19T03:39:11.331Z,101045.06
2023-05-19T03:41:38.453Z,101040.13
2023-05-19T03:44:05.602Z,101042.52
2023-05-19T03:46:32.669Z,101042.89
2023-05-19T03:49:22.802Z,101047.12
2023-05-19T03:52:10.024Z,101046.41
2023-05-19T03:54:53.233Z,101045.92
2023-05-19T03:57:20.311Z,101041.34
2023-05-19T03:59:47.810Z,101039.11
2023-05-19T04:02:16.169Z,101037.96
2023-05-19T04:04:43.740Z,101038.95
2023-05-19T04:07:11.916Z,101042.63
2023-05-19T04:09:40.336Z,101047.42
2023-05-19T04:12:07.772Z,101044.15
2023-05-19T04:14:35.100Z,101045.35
2023-05-19T04:17:03.516Z,101043.05
2023-05-19T04:19:30.739Z,101045.39
2023-05-19T04:21:57.759Z,101043.95
2023-05-19T04:24:24.914Z,101038.55
2023-05-19T04:26:52.356Z,101045.23
2023-05-19T04:29:19.794Z,101047.53
2023-05-19T04:31:47.108Z,101053.56
2023-05-19T04:34:14.130Z,101050.52
2023-05-19T04:36:41.861Z,101049.35
2023-05-19T04:39:12.341Z,101052.61
2023-05-19T04:41:42.169Z,101052.33
2023-05-19T04:44:09.659Z,101055.36
2023-05-19T04:46:37.498Z,101059.02
2023-05-19T04:49:05.372Z,101060.20
2023-05-19T04:51:32.612Z,101060.23
2023-05-19T04:54:01.745Z,101062.76
2023-05-19T04:56:29.106Z,101063.68
2023-05-19T04:58:57.733Z,101067.56
2023-05-19T05:01:26.560Z,101067.30
2023-05-19T05:03:55.555Z,101071.34
2023-05-19T05:06:22.836Z,101069.80
2023-05-19T05:08:50.222Z,101072.49
2023-05-19T05:11:18.325Z,101078.90
2023-05-19T05:13:48.172Z,101078.09
2023-05-19T05:16:16.007Z,101082.98
2023-05-19T05:18:44.777Z,101084.03
2023-05-19T05:21:13.855Z,101088.02
2023-05-19T05:23:42.955Z,101087.72
2023-05-19T05:26:12.340Z,101093.73
2023-05-19T05:28:41.567Z,101094.31
2023-05-19T05:31:08.683Z,101096.54
2023-05-19T05:33:35.933Z,101099.93
2023-05-19T05:36:03.000Z,101100.02
2023-05-19T05:38:30.380Z,101093.62
2023-05-19T05:40:57.789Z,101092.30
2023-05-19T05:43:25.327Z,101096.71
2023-05-19T05:45:57.475Z,101096.08
2023-05-19T05:48:24.904Z,101096.52
2023-05-19T05:50:52.828Z,101097.41
2023-05-19T05:53:22.364Z,101097.03
2023-05-19T05:55:51.848Z,101099.73
2023-05-19T05:58:21.451Z,101101.98
2023-05-19T06:00:50.408Z,101104.20
2023-05-19T06:03:17.888Z,101104.96
2023-05-19T06:05:45.636Z,101106.70
2023-05-19T06:08:13.581Z,101115.59
2023-05-19T06:10:45.101Z,101109.22
2023-05-19T06:13:13.882Z,101116.08
2023-05-19T06:15:41.429Z,101122.08
2023-05-19T06:18:18.682Z,101123.92
2023-05-19T06:20:48.263Z,101129.12
2023-05-19T06:23:15.322Z,101130.30
2023-05-19T06:25:42.433Z,101132.86
2023-05-19T06:28:11.093Z,101134.58
2023-05-19T06:30:38.364Z,101131.11
2023-05-19T06:33:31.599Z,101140.23
2023-05-19T06:35:58.684Z,101135.92
2023-05-19T06:38:26.371Z,101136.24
2023-05-19T06:40:53.413Z,101136.14
2023-05-19T06:43:20.689Z,101135.09
2023-05-19T06:45:55.486Z,101134.77
2023-05-19T06:48:23.345Z,101137.70
2023-05-19T06:50:51.069Z,101137.66
2023-05-19T06:53:19.749Z,101139.38
2023-05-19T06:55:57.994Z,101138.71
2023-05-19T06:58:28.227Z,101135.38
2023-05-19T07:00:55.943Z,101139.58
2023-05-19T07:03:25.094Z,101137.23
2023-05-19T07:05:52.323Z,101137.29
2023-05-19T07:08:20.563Z,101137.83
2023-05-19T07:10:47.565Z,101142.52
2023-05-19T07:13:17.122Z,101139.34
2023-05-19T07:15:44.321Z,101142.81
2023-05-19T07:18:11.469Z,101145.00
2023-05-19T07:20:38.836Z,101144.04
2023-05-19T07:23:05.966Z,101142.01
2023-05-19T07:25:33.567Z,101138.05
2023-05-19T07:28:00.808Z,101136.02
2023-05-19T07:30:31.317Z,101136.91
2023-05-19T07:32:58.696Z,101136.66
2023-05-19T07:35:26.479Z,101133.23
2023-05-19T07:37:53.585Z,101134.14
2023-05-19T07:40:20.628Z,101131.52
2023-05-19T07:42:49.782Z,101133.09
2023-05-19T07:45:16.887Z,101131.02
2023-05-19T07:47:43.949Z,101135.44
2023-05-19T07:50:11.010Z,101132.80
2023-05-19T07:52:38.073Z,101132.24
2023-05-19T07:55:06.509Z,101129.34
2023-05-19T07:57:33.582Z,101132.94
2023-05-19T08:00:00.623Z,101136.31
2023-05-19T08:02:27.811Z,101134.90
2023-05-19T08:04:55.166Z,101136.80
2023-05-19T08:07:22.411Z,101133.16
2023-05-19T08:09:50.060Z,101135.36
2023-05-19T08:12:17.756Z,101131.77
2023-05-19T08:14:44.784Z,101128.51
2023-05-19T08:17:11.879Z,101125.55
2023-05-19T08:19:38.941Z,101123.16
2023-05-19T08:22:06.112Z,101123.50
2023-05-19T08:24:34.178Z,101126.33
2023-05-19T08:27:01.497Z,101123.39
2023-05-19T08:29:28.571Z,101124.52
2023-05-19T08:31:55.864Z,101123.79
2023-05-19T08:34:23.101Z,101121.77
2023-05-19T08:36:50.573Z,101127.92
2023-05-19T08:39:19.853Z,101123.84
2023-05-19T08:41:46.899Z,101124.63
2023-05-19T08:44:13.850Z,101124.02
2023-05-19T08:46:41.008Z,101122.80
2023-05-19T08:49:13.821Z,101128.02
2023-05-19T08:51:50.355Z,101126.54
2023-05-19T08:54:19.390Z,101125.96
2023-05-19T08:56:46.783Z,101125.80
2023-05-19T08:59:15.318Z,101130.58
2023-05-19T09:01:46.597Z,101125.69
2023-05-19T09:04:13.785Z,101127.16
2023-05-19T09:06:42.545Z,101124.59
2023-05-19T09:09:09.731Z,101124.75
2023-05-19T09:11:37.915Z,101129.55
2023-05-19T09:14:05.919Z,101135.16
2023-05-19T09:16:34.267Z,101129.55
2023-05-19T09:19:01.677Z,101127.44
2023-05-19T09:21:31.968Z,101128.89
2023-05-19T09:24:04.156Z,101124.25
2023-05-19T09:26:42.082Z,101117.73
2023-05-19T09:29:18.522Z,101112.34
2023-05-19T09:32:01.850Z,101114.12
2023-05-19T09:34:28.982Z,101115.23
2023-05-19T09:36:56.057Z,101117.40
2023-05-19T09:39:23.628Z,101118.09
2023-05-19T09:41:54.449Z,101116.48
2023-05-19T09:44:21.472Z,101115.61
2023-05-19T09:46:49.786Z,101120.81
2023-05-19T09:49:21.212Z,101117.06
2023-05-19T09:51:55.781Z,101121.47
2023-05-19T09:54:24.012Z,101122.36
2023-05-19T09:56:59.243Z,101124.91
2023-05-19T09:59:26.521Z,101123.13
2023-05-19T10:01:54.848Z,101124.05
2023-05-19T10:04:22.977Z,101124.23
2023-05-19T10:06:54.435Z,101119.45
2023-05-19T10:09:27.277Z,101119.55
2023-05-19T10:11:55.641Z,101117.02
2023-05-19T10:14:24.977Z,101118.50
2023-05-19T10:16:53.097Z,101114.48
2023-05-19T10:19:21.355Z,101112.83
2023-05-19T10:21:48.756Z,101108.66
2023-05-19T10:24:15.906Z,101106.96
2023-05-19T10:26:46.705Z,101103.42
2023-05-19T10:29:15.731Z,101099.38
2023-05-19T10:31:42.796Z,101095.95
2023-05-19T10:34:40.811Z,101097.49
2023-05-19T10:37:18.113Z,101095.14
2023-05-19T10:39:45.731Z,101091.69
2023-05-19T10:42:33.089Z,101095.72
2023-05-19T10:45:20.411Z,101088.21
2023-05-19T10:47:48.104Z,101084.11
2023-05-19T10:50:15.273Z,101088.91
2023-05-19T10:52:42.425Z,101081.83
2023-05-19T10:55:17.853Z,101084.55
2023-05-19T10:57:56.978Z,101084.81
2023-05-19T11:00:27.861Z,101086.08
2023-05-19T11:02:58.259Z,101090.17
2023-05-19T11:05:29.725Z,101089.24
2023-05-19T11:07:57.280Z,101087.33
2023-05-19T11:10:24.727Z,101088.81
2023-05-19T11:12:52.363Z,101087.70
2023-05-19T11:15:19.671Z,101083.23
2023-05-19T11:17:49.155Z,101087.37
2023-05-19T11:20:26.868Z,101089.16
2023-05-19T11:23:19.002Z,101094.55
2023-05-19T11:25:51.495Z,101090.49
2023-05-19T11:28:19.974Z,101094.63
2023-05-19T11:30:52.165Z,101095.11
2023-05-19T11:33:27.431Z,101095.86
2023-05-19T11:36:00.902Z,101093.44
2023-05-19T11:38:30.401Z,101092.15
2023-05-19T11:41:00.055Z,101094.73
2023-05-19T11:43:27.166Z,101105.88
2023-05-19T11:45:54.843Z,101102.64
2023-05-19T11:48:22.734Z,101102.39
2023-05-19T11:50:50.237Z,101104.55
2023-05-19T11:53:17.667Z,101116.14
2023-05-19T11:55:48.410Z,101108.29
2023-05-19T11:58:16.514Z,101117.42
2023-05-19T12:00:46.263Z,101114.05
2023-05-19T12:03:13.638Z,101116.55
2023-05-19T12:05:47.370Z,101123.09
2023-05-19T12:08:15.133Z,101131.02
2023-05-19T12:10:42.166Z,101122.83
2023-05-19T12:13:09.977Z,101122.39
2023-05-19T12:15:37.932Z,101120.61
2023-05-19T12:18:05.060Z,101118.72
2023-05-19T12:20:32.794Z,101120.08
2023-05-19T12:23:00.475Z,101108.57
2023-05-19T12:25:28.700Z,101108.37
2023-05-19T12:27:59.878Z,101107.14
2023-05-19T12:30:28.499Z,101112.52
2023-05-19T12:32:57.866Z,101109.48
2023-05-19T12:35:29.532Z,101109.21
2023-05-19T12:37:56.571Z,101112.70
2023-05-19T12:40:23.651Z,101117.20
2023-05-19T12:42:53.508Z,101109.05
2023-05-19T12:45:21.594Z,101108.84
2023-05-19T12:47:48.891Z,101113.36
2023-05-19T12:50:16.399Z,101113.58
2023-05-19T12:52:52.382Z,101106.11
2023-05-19T12:55:21.132Z,101110.42
2023-05-19T12:57:54.959Z,101103.98
2023-05-19T13:00:22.885Z,101100.44
2023-05-19T13:03:10.247Z,101100.19
2023-05-19T13:05:40.187Z,101091.38
2023-05-19T13:08:08.476Z,101088.95
2023-05-19T13:10:36.433Z,101088.08
2023-05-19T13:13:03.548Z,101082.23
2023-05-19T13:15:34.598Z,101088.37
2023-05-19T13:18:03.539Z,101083.24
2023-05-19T13:20:30.961Z,101081.67
2023-05-19T13:22:58.259Z,101081.77
2023-05-19T13:25:26.012Z,101076.58
2023-05-19T13:27:53.149Z,101077.80
2023-05-19T13:30:21.182Z,101071.01
2023-05-19T13:32:48.350Z,101071.77
2023-05-19T13:35:16.023Z,101074.86
2023-05-19T13:37:43.167Z,101073.81
2023-05-19T13:40:10.963Z,101073.14
2023-05-19T13:42:38.188Z,101072.95
2023-05-19T13:45:05.646Z,101077.22
2023-05-19T13:47:32.882Z,101079.89
2023-05-19T13:49:59.996Z,101072.89
2023-05-19T13:52:29.078Z,101068.65
2023-05-19T13:54:57.540Z,101072.99
2023-05-19T13:57:25.725Z,101074.66
2023-05-19T14:00:01.597Z,101077.97
2023-05-19T14:02:39.939Z,101077.83
2023-05-19T14:05:07.666Z,101080.57
2023-05-19T14:07:35.412Z,101079.04
2023-05-19T14:10:04.152Z,101079.80
2023-05-19T14:12:41.303Z,101084.67
2023-05-19T14:15:14.765Z,101083.27
2023-05-19T14:17:41.946Z,101083.56
2023-05-19T14:20:09.826Z,101079.77
2023-05-19T14:22:36.868Z,101085.23
2023-05-19T14:25:04.167Z,101083.56
2023-05-19T14:27:31.268Z,101085.55
2023-05-19T14:29:58.348Z,101090.27
2023-05-19T14:32:28.620Z,101087.68
2023-05-19T14:34:57.206Z,101087.84
2023-05-19T14:37:27.782Z,101088.58
2023-05-19T14:39:55.237Z,101095.21
2023-05-19T14:42:24.004Z,101096.17
2023-05-19T14:44:51.137Z,101089.45
2023-05-19T14:47:18.264Z,101088.80
2023-05-19T14:49:45.361Z,101087.39
2023-05-19T14:52:12.340Z,101089.30
2023-05-19T14:54:39.466Z,101089.30
2023-05-19T14:57:08.290Z,101087.98
2023-05-19T14:59:38.804Z,101084.73
2023-05-19T15:02:06.209Z,101085.13
2023-05-19T15:04:33.869Z,101083.63
2023-05-19T15:09:48.121Z,101077.11
2023-05-19T15:12:15.142Z,101080.74
2023-05-19T15:14:42.196Z,101081.23
2023-05-19T15:17:09.357Z,101083.25
2023-05-19T15:19:36.416Z,101086.80
2023-05-19T15:22:03.475Z,101087.25
2023-05-19T15:24:37.226Z,101087.52
2023-05-19T15:27:04.506Z,101090.44
2023-05-19T15:29:31.544Z,101087.81
2023-05-19T15:31:58.622Z,101086.73
2023-05-19T15:34:25.629Z,101086.37
2023-05-19T15:36:52.705Z,101080.95
2023-05-19T15:39:19.708Z,101084.24
2023-05-19T15:41:46.920Z,101083.79
2023-05-19T15:44:13.968Z,101079.59
2023-05-19T15:46:41.346Z,101081.80
2023-05-19T15:49:08.594Z,101084.20
2023-05-19T15:51:35.795Z,101085.68
2023-05-19T15:54:03.371Z,101088.64
2023-05-19T15:56:30.672Z,101090.29
2023-05-19T15:58:57.723Z,101091.11
2023-05-19T16:01:25.259Z,101093.59
2023-05-19T16:03:53.939Z,101096.86
2023-05-19T16:06:21.670Z,101097.21
2023-05-19T16:08:48.727Z,101100.63
2023-05-19T16:11:15.900Z,101099.27
2023-05-19T16:13:43.046Z,101108.98
2023-05-19T16:16:10.106Z,101111.63
2023-05-19T16:18:37.268Z,101115.75
2023-05-19T16:21:04.556Z,101116.27
2023-05-19T16:23:31.596Z,101122.52
2023-05-19T16:25:58.686Z,101122.59
2023-05-19T16:28:25.799Z,101122.52
2023-05-19T16:30:52.820Z,101126.63
2023-05-19T16:33:19.851Z,101132.04
2023-05-19T16:35:46.949Z,101133.88
2023-05-19T16:38:14.013Z,101133.19
2023-05-19T16:40:41.050Z,101136.20
2023-05-19T16:43:08.149Z,101142.51
2023-05-19T16:45:35.184Z,101144.60
2023-05-19T16:48:02.347Z,101148.90
2023-05-19T16:50:29.625Z,101157.81
2023-05-19T16:52:56.634Z,101160.31
2023-05-19T16:55:27.001Z,101166.89
2023-05-19T16:57:57.219Z,101171.46
2023-05-19T17:00:24.914Z,101179.87
2023-05-19T17:02:52.040Z,101176.68
2023-05-19T17:05:19.507Z,101180.32
2023-05-19T17:07:46.712Z,101177.58
2023-05-19T17:10:16.755Z,101180.23
2023-05-19T17:12:43.782Z,101179.41
2023-05-19T17:15:11.227Z,101182.41
2023-05-19T17:17:38.423Z,101181.95
2023-05-19T17:20:06.599Z,101184.27
2023-05-19T17:22:33.616Z,101183.97
2023-05-19T17:25:00.622Z,101186.52
2023-05-19T17:27:27.684Z,101182.36
2023-05-19T17:29:54.728Z,101181.92
2023-05-19T17:32:25.924Z,101185.14
2023-05-19T17:34:53.236Z,101186.73
2023-05-19T17:37:23.630Z,101186.11
2023-05-19T17:39:51.208Z,101185.48
2023-05-19T17:42:19.564Z,101190.92
2023-05-19T17:44:47.156Z,101186.16
2023-05-19T17:47:14.390Z,101186.28
2023-05-19T17:49:41.777Z,101192.22
2023-05-19T17:52:09.518Z,101192.97
2023-05-19T17:54:36.898Z,101196.79
2023-05-19T17:57:04.259Z,101192.67
2023-05-19T17:59:31.537Z,101200.44
2023-05-19T18:01:59.237Z,101203.13
2023-05-19T18:04:26.654Z,101207.33
2023-05-19T18:06:54.737Z,101210.10
2023-05-19T18:09:21.828Z,101210.17
2023-05-19T18:11:48.902Z,101216.70
2023-05-19T18:14:15.968Z,101217.75
2023-05-19T18:16:43.861Z,101220.17
2023-05-19T18:19:11.206Z,101218.31
2023-05-19T18:21:38.443Z,101222.09
2023-05-19T18:24:06.307Z,101221.33
2023-05-19T18:26:33.759Z,101221.66
2023-05-19T18:29:05.385Z,101227.16
2023-05-19T18:31:32.511Z,101227.13
2023-05-19T18:33:59.676Z,101227.66
2023-05-19T18:36:26.791Z,101229.90
2023-05-19T18:38:55.265Z,101231.00
2023-05-19T18:41:22.449Z,101227.83
2023-05-19T18:43:49.528Z,101228.08
2023-05-19T18:46:19.962Z,101229.00
2023-05-19T18:48:49.128Z,101226.39
2023-05-19T18:51:18.755Z,101228.54
2023-05-19T18:53:48.804Z,101223.23
2023-05-19T18:56:23.439Z,101221.19
2023-05-19T18:58:51.136Z,101219.94
2023-05-19T19:01:18.359Z,101223.84
2023-05-19T19:03:47.241Z,101231.93
2023-05-19T19:06:14.288Z,101232.66
2023-05-19T19:08:41.456Z,101232.36
2023-05-19T19:11:11.423Z,101232.98
2023-05-19T19:13:40.074Z,101236.34
2023-05-19T19:16:07.437Z,101236.36
2023-05-19T19:18:36.542Z,101240.90
2023-05-19T19:21:05.969Z,101236.05
2023-05-19T19:23:33.403Z,101238.95
2023-05-19T19:26:02.490Z,101240.82
2023-05-19T19:28:34.247Z,101239.11
2023-05-19T19:31:01.284Z,101238.06
2023-05-19T19:33:28.335Z,101235.79
2023-05-19T19:35:55.662Z,101236.17
2023-05-19T19:38:22.731Z,101235.15
2023-05-19T19:40:52.489Z,101234.09
2023-05-19T19:43:19.654Z,101235.24
2023-05-19T19:45:46.712Z,101231.45
2023-05-19T19:48:13.826Z,101233.98
2023-05-19T19:50:40.916Z,101229.27
2023-05-19T19:53:09.102Z,101231.80
2023-05-19T19:55:36.079Z,101233.20
2023-05-19T19:58:03.169Z,101230.85
2023-05-19T20:00:32.029Z,101231.78
2023-05-19T20:05:29.263Z,101231.54
2023-05-19T20:07:56.394Z,101233.52
2023-05-19T20:10:23.456Z,101234.58
2023-05-19T20:12:51.507Z,101238.39
2023-05-19T20:15:18.724Z,101236.87
2023-05-19T20:17:46.013Z,101234.38
2023-05-19T20:20:13.494Z,101239.41
2023-05-19T20:22:40.661Z,101241.22
2023-05-19T20:25:08.116Z,101240.11
2023-05-19T20:27:35.262Z,101239.69
2023-05-19T20:30:02.315Z,101240.88
2023-05-19T20:32:29.449Z,101242.24
2023-05-19T20:34:56.825Z,101244.10
2023-05-19T20:37:23.954Z,101253.06
2023-05-19T20:39:50.961Z,101254.04
2023-05-19T20:42:18.050Z,101248.92
2023-05-19T20:44:45.286Z,101251.32
2023-05-19T20:47:12.314Z,101252.17
2023-05-19T20:49:39.377Z,101251.77
2023-05-19T20:52:06.645Z,101253.95
2023-05-19T20:54:33.736Z,101254.63
2023-05-19T20:57:01.434Z,101256.44
2023-05-19T20:59:28.457Z,101257.08
2023-05-19T21:01:55.568Z,101258.63
2023-05-19T21:04:22.762Z,101262.39
2023-05-19T21:06:49.849Z,101262.17
2023-05-19T21:09:16.986Z,101260.48
2023-05-19T21:11:44.230Z,101256.96
2023-05-19T21:14:11.214Z,101259.58
2023-05-19T21:16:39.089Z,101255.60
2023-05-19T21:19:06.847Z,101262.65
2023-05-19T21:21:34.111Z,101263.91
2023-05-19T21:24:01.164Z,101260.08
2023-05-19T21:26:28.194Z,101266.72
2023-05-19T21:28:55.228Z,101261.20
2023-05-19T21:31:22.309Z,101267.59
2023-05-19T21:33:49.563Z,101267.87
2023-05-19T21:36:17.190Z,101265.45
2023-05-19T21:38:44.244Z,101269.42
2023-05-19T21:41:11.340Z,101266.11
2023-05-19T21:43:38.376Z,101269.48
2023-05-19T21:46:05.523Z,101268.63
2023-05-19T21:48:32.603Z,101266.38
2023-05-19T21:50:59.608Z,101270.08
2023-05-19T21:53:26.616Z,101271.17
2023-05-19T21:55:53.913Z,101269.27
2023-05-19T21:58:21.113Z,101272.58
2023-05-19T22:00:51.903Z,101272.54
2023-05-19T22:03:19.651Z,101274.57
2023-05-19T22:05:50.628Z,101272.86
2023-05-19T22:08:18.052Z,101274.43
2023-05-19T22:10:45.168Z,101272.38
2023-05-19T22:13:12.800Z,101273.70
2023-05-19T22:15:39.870Z,101271.96
2023-05-19T22:18:07.059Z,101273.88
2023-05-19T22:20:34.698Z,101275.92
2023-05-19T22:23:03.253Z,101280.24
2023-05-19T22:25:30.571Z,101283.56
2023-05-19T22:27:57.729Z,101280.23
2023-05-19T22:30:24.794Z,101280.91
2023-05-19T22:32:51.893Z,101279.28
2023-05-19T22:35:19.298Z,101278.03
2023-05-19T22:37:46.332Z,101274.89
2023-05-19T22:40:14.676Z,101281.07
2023-05-19T22:42:41.663Z,101281.89
2023-05-19T22:45:09.478Z,101283.80
2023-05-19T22:47:36.868Z,101282.62
2023-05-19T22:50:04.280Z,101281.48
2023-05-19T22:52:31.218Z,101277.61
2023-05-19T22:54:58.667Z,101275.02
2023-05-19T22:57:25.694Z,101271.77
2023-05-19T22:59:52.727Z,101273.07
2023-05-19T23:02:19.965Z,101271.27
2023-05-19T23:04:47.004Z,101276.26
2023-05-19T23:07:13.953Z,101275.66
2023-05-19T23:09:41.004Z,101276.96
2023-05-19T23:12:07.988Z,101274.25
2023-05-19T23:14:35.047Z,101276.39
2023-05-19T23:17:02.156Z,101274.25
2023-05-19T23:19:32.030Z,101274.12
2023-05-19T23:21:59.035Z,101273.16
2023-05-19T23:24:26.063Z,101274.94
2023-05-19T23:26:54.833Z,101272.52
2023-05-19T23:29:21.862Z,101269.42
2023-05-19T23:31:51.198Z,101268.41
2023-05-19T23:34:18.353Z,101267.82
2023-05-19T23:36:46.806Z,101272.46
2023-05-19T23:39:14.428Z,101272.84
2023-05-19T23:41:41.583Z,101274.80
2023-05-19T23:44:08.585Z,101271.35
2023-05-19T23:46:35.812Z,101274.89
2023-05-19T23:49:03.032Z,101274.34
2023-05-19T23:51:30.137Z,101276.17
2023-05-19T23:53:57.222Z,101275.89
2023-05-19T23:56:24.232Z,101272.94
2023-05-19T23:58:51.740Z,101271.77
